Time;durP1;ratioP1;P1;durP2;ratioP2;P2;SDS_P1;SDS_P2;PMS_P1;PMS_P2;Temp;Humidity;BMP_temperature;BMP_pressure;BME280_temperature;BME280_humidity;BME280_pressure;Samples;Min_cycle;Max_cycle;Signal;HPM_P1;HPM_P2
2022/05/19 00:01:49;;;;;;;;;;;21.80;53.40;;;;;;5059302;28;19959;-58
2022/05/19 00:04:16;;;;;;;;;;;21.80;53.40;;;;;;5075749;28;19921;-56
2022/05/19 00:06:44;;;;;;;;;;;21.80;53.40;;;;;;5070764;28;19952;-59
2022/05/19 00:09:11;;;;;;;;;;;21.80;53.40;;;;;;5051058;28;19921;-58
2022/05/19 00:11:37;;;;;;;;;;;21.80;53.40;;;;;;5071541;28;20445;-58
2022/05/19 00:14:04;;;;;;;;;;;21.80;53.40;;;;;;5066120;28;20303;-58
2022/05/19 00:16:32;;;;;;;;;;;21.80;53.40;;;;;;5066503;28;19920;-57
2022/05/19 00:18:58;;;;;;;;;;;21.80;53.40;;;;;;5057130;28;19943;-59
2022/05/19 00:21:25;;;;;;;;;;;21.80;53.40;;;;;;5063711;28;19921;-58
2022/05/19 00:23:53;;;;;;;;;;;21.80;53.40;;;;;;5061507;28;19920;-58
2022/05/19 00:26:20;;;;;;;;;;;21.80;53.40;;;;;;5054869;28;19920;-59
2022/05/19 00:28:47;;;;;;;;;;;21.80;53.40;;;;;;5065310;28;19968;-59
2022/05/19 00:31:13;;;;;;;;;;;21.80;53.40;;;;;;5069198;28;20015;-59
2022/05/19 00:33:40;;;;;;;;;;;21.80;53.40;;;;;;5068501;28;19925;-58
2022/05/19 00:36:07;;;;;;;;;;;21.80;53.40;;;;;;5067198;28;19929;-60
2022/05/19 00:38:34;;;;;;;;;;;21.80;53.40;;;;;;5064423;28;19921;-58
2022/05/19 00:41:02;;;;;;;;;;;21.80;53.40;;;;;;5065943;28;20074;-59
2022/05/19 00:43:29;;;;;;;;;;;21.80;53.40;;;;;;5058030;28;19929;-58
2022/05/19 00:45:57;;;;;;;;;;;21.70;53.30;;;;;;5040748;28;19925;-56
2022/05/19 00:48:25;;;;;;;;;;;21.80;53.40;;;;;;5057026;28;20277;-59
2022/05/19 00:50:52;;;;;;;;;;;21.80;53.40;;;;;;5068175;28;20314;-60
2022/05/19 00:53:22;;;;;;;;;;;21.80;53.40;;;;;;5059739;28;19964;-56
2022/05/19 00:55:48;;;;;;;;;;;21.70;53.30;;;;;;5062338;28;19971;-59
2022/05/19 00:58:17;;;;;;;;;;;21.70;53.30;;;;;;5068831;28;19974;-58
2022/05/19 01:00:45;;;;;;;;;;;21.80;53.40;;;;;;5062338;28;19998;-59
2022/05/19 01:03:11;;;;;;;;;;;21.70;53.30;;;;;;5052464;28;19925;-58
2022/05/19 01:05:39;;;;;;;;;;;21.80;53.40;;;;;;5067766;28;20003;-59
2022/05/19 01:08:08;;;;;;;;;;;21.80;53.40;;;;;;5062079;28;19975;-59
2022/05/19 01:10:35;;;;;;;;;;;21.70;53.30;;;;;;5076378;28;19920;-58
2022/05/19 01:13:02;;;;;;;;;;;21.70;53.30;;;;;;5064323;28;19956;-57
2022/05/19 01:15:30;;;;;;;;;;;21.70;53.30;;;;;;5068147;28;19924;-58
2022/05/19 01:17:59;;;;;;;;;;;21.70;53.30;;;;;;5068925;28;20349;-58
2022/05/19 01:20:26;;;;;;;;;;;21.70;53.30;;;;;;5060642;28;19921;-57
2022/05/19 01:22:53;;;;;;;;;;;21.70;53.30;;;;;;5057885;28;20246;-59
2022/05/19 01:25:23;;;;;;;;;;;21.70;53.30;;;;;;5068355;28;19973;-59
2022/05/19 01:27:51;;;;;;;;;;;21.70;53.30;;;;;;5069765;28;19927;-59
2022/05/19 01:30:18;;;;;;;;;;;21.70;53.30;;;;;;5066859;28;19932;-57
2022/05/19 01:32:45;;;;;;;;;;;21.70;53.30;;;;;;5069963;28;19921;-59
2022/05/19 01:35:12;;;;;;;;;;;21.70;53.40;;;;;;5056418;28;20301;-58
2022/05/19 01:37:38;;;;;;;;;;;21.80;53.40;;;;;;5065731;28;19924;-58
2022/05/19 01:40:06;;;;;;;;;;;21.70;53.30;;;;;;5054917;28;19939;-57
2022/05/19 01:42:36;;;;;;;;;;;21.80;53.50;;;;;;5066346;28;19990;-59
2022/05/19 01:45:06;;;;;;;;;;;21.70;53.30;;;;;;5069811;28;19967;-58
2022/05/19 01:47:35;;;;;;;;;;;21.70;53.90;;;;;;5065004;28;20394;-55
2022/05/19 01:50:03;;;;;;;;;;;21.70;53.30;;;;;;5064771;28;19920;-59
2022/05/19 01:52:32;;;;;;;;;;;21.70;53.30;;;;;;5049149;28;20012;-57
2022/05/19 01:54:59;;;;;;;;;;;21.70;53.40;;;;;;5057067;28;19928;-58
2022/05/19 01:57:27;;;;;;;;;;;21.70;53.40;;;;;;5053295;28;19979;-58
2022/05/19 01:59:56;;;;;;;;;;;21.70;53.40;;;;;;5050374;28;19927;-57
2022/05/19 02:02:25;;;;;;;;;;;21.70;54.00;;;;;;5070238;28;19928;-58
2022/05/19 02:04:53;;;;;;;;;;;21.70;53.40;;;;;;5057061;28;19924;-58
2022/05/19 02:07:19;;;;;;;;;;;21.70;53.40;;;;;;5059118;28;19928;-59
2022/05/19 02:09:47;;;;;;;;;;;21.70;53.40;;;;;;5056999;28;19925;-59
2022/05/19 02:12:13;;;;;;;;;;;21.70;53.30;;;;;;5072293;28;19928;-57
2022/05/19 02:14:40;;;;;;;;;;;21.70;53.30;;;;;;5050285;28;20345;-59
2022/05/19 02:17:08;;;;;;;;;;;21.70;53.30;;;;;;5062225;28;19996;-57
2022/05/19 02:19:37;;;;;;;;;;;21.70;53.30;;;;;;5068919;28;19928;-58
2022/05/19 02:22:04;;;;;;;;;;;21.70;53.30;;;;;;5067916;28;19921;-59
2022/05/19 02:24:31;;;;;;;;;;;21.70;53.40;;;;;;5063214;28;19933;-57
2022/05/19 02:26:57;;;;;;;;;;;21.70;53.40;;;;;;5053328;28;20326;-54
2022/05/19 02:29:26;;;;;;;;;;;21.70;53.40;;;;;;5051134;28;19928;-57
2022/05/19 02:31:53;;;;;;;;;;;21.70;53.30;;;;;;5058442;28;19924;-59
2022/05/19 02:34:19;;;;;;;;;;;21.70;53.30;;;;;;5054685;28;20433;-57
2022/05/19 02:36:48;;;;;;;;;;;21.70;53.30;;;;;;5050460;28;19931;-57
2022/05/19 02:39:14;;;;;;;;;;;21.70;53.30;;;;;;5050183;28;20269;-58
2022/05/19 02:42:08;;;;;;;;;;;21.70;53.40;;;;;;5155898;27;19911;-59
2022/05/19 02:44:35;;;;;;;;;;;21.70;53.30;;;;;;5125070;27;20379;-58
2022/05/19 02:47:02;;;;;;;;;;;21.70;53.40;;;;;;5148530;27;19927;-58
2022/05/19 02:49:28;;;;;;;;;;;21.70;53.40;;;;;;5124404;28;20314;-58
2022/05/19 02:51:55;;;;;;;;;;;21.70;53.30;;;;;;5144208;27;19955;-60
2022/05/19 02:54:22;;;;;;;;;;;21.70;53.40;;;;;;5127074;27;19923;-60
2022/05/19 02:56:48;;;;;;;;;;;21.70;53.30;;;;;;5143656;27;19965;-58
2022/05/19 02:59:16;;;;;;;;;;;21.70;53.30;;;;;;5127600;27;19924;-59
2022/05/19 03:01:44;;;;;;;;;;;21.70;53.30;;;;;;5128896;27;19928;-61
2022/05/19 03:04:11;;;;;;;;;;;21.70;53.30;;;;;;5125209;27;19923;-57
2022/05/19 03:06:38;;;;;;;;;;;21.70;53.30;;;;;;5127947;27;19957;-59
2022/05/19 03:09:05;;;;;;;;;;;21.70;53.20;;;;;;5148014;27;19958;-58
2022/05/19 03:11:31;;;;;;;;;;;21.70;53.20;;;;;;5145460;27;20007;-58
2022/05/19 03:13:58;;;;;;;;;;;21.70;53.20;;;;;;5114883;27;19934;-61
2022/05/19 03:16:26;;;;;;;;;;;21.70;53.20;;;;;;5118888;27;20349;-59
2022/05/19 03:18:53;;;;;;;;;;;21.70;53.20;;;;;;5125985;27;20339;-58
2022/05/19 03:21:20;;;;;;;;;;;21.70;53.20;;;;;;5128133;27;19923;-59
2022/05/19 03:23:46;;;;;;;;;;;21.70;53.20;;;;;;5124402;27;19919;-59
2022/05/19 03:26:13;;;;;;;;;;;21.70;53.20;;;;;;5147659;27;19924;-59
2022/05/19 03:28:39;;;;;;;;;;;21.70;53.30;;;;;;5143788;27;19931;-58
2022/05/19 03:31:06;;;;;;;;;;;21.70;53.30;;;;;;5130828;27;20026;-57
2022/05/19 03:33:34;;;;;;;;;;;21.70;53.30;;;;;;5125040;27;19966;-58
2022/05/19 03:36:01;;;;;;;;;;;21.70;53.40;;;;;;5120625;27;20393;-58
2022/05/19 03:38:28;;;;;;;;;;;21.70;53.30;;;;;;5124244;27;20373;-58
2022/05/19 03:40:55;;;;;;;;;;;21.70;53.30;;;;;;5119141;27;19953;-58
2022/05/19 03:43:21;;;;;;;;;;;21.70;53.20;;;;;;5128425;27;20341;-59
2022/05/19 03:45:48;;;;;;;;;;;21.70;53.20;;;;;;5146225;27;19980;-56
2022/05/19 03:48:15;;;;;;;;;;;21.70;53.30;;;;;;5125975;27;19920;-59
2022/05/19 03:50:45;;;;;;;;;;;21.70;53.20;;;;;;5126394;27;19927;-59
2022/05/19 03:53:11;;;;;;;;;;;21.70;53.20;;;;;;5116286;27;19923;-59
2022/05/19 03:55:38;;;;;;;;;;;21.70;53.20;;;;;;5131750;27;20271;-58
2022/05/19 03:58:05;;;;;;;;;;;21.70;53.20;;;;;;5120777;27;19919;-59
2022/05/19 04:00:32;;;;;;;;;;;21.70;53.20;;;;;;5125108;27;19919;-58
2022/05/19 04:02:59;;;;;;;;;;;21.70;53.20;;;;;;5109341;27;20018;-58
2022/05/19 04:05:26;;;;;;;;;;;21.70;53.20;;;;;;5115019;27;19920;-58
2022/05/19 04:07:54;;;;;;;;;;;21.70;53.20;;;;;;5123652;27;19934;-56
2022/05/19 04:10:21;;;;;;;;;;;21.70;53.20;;;;;;5134026;27;20465;-57
2022/05/19 04:12:48;;;;;;;;;;;21.70;53.20;;;;;;5103713;27;19920;-57
2022/05/19 04:15:15;;;;;;;;;;;21.70;53.20;;;;;;5121259;27;20479;-59
2022/05/19 04:17:41;;;;;;;;;;;21.70;53.20;;;;;;5129766;27;20006;-58
2022/05/19 04:20:09;;;;;;;;;;;21.70;53.20;;;;;;5123873;27;19920;-57
2022/05/19 04:22:36;;;;;;;;;;;21.70;53.20;;;;;;5120627;27;19964;-58
2022/05/19 04:25:04;;;;;;;;;;;21.70;53.10;;;;;;5110480;27;19920;-59
2022/05/19 04:27:31;;;;;;;;;;;21.70;53.10;;;;;;5110706;27;19928;-58
2022/05/19 04:29:58;;;;;;;;;;;21.70;53.10;;;;;;5113595;27;19926;-57
2022/05/19 04:32:24;;;;;;;;;;;21.70;53.10;;;;;;5113881;27;19919;-59
2022/05/19 04:34:51;;;;;;;;;;;21.70;53.10;;;;;;5114209;27;19925;-58
2022/05/19 04:37:17;;;;;;;;;;;21.70;53.10;;;;;;5119783;27;19919;-57
2022/05/19 04:39:44;;;;;;;;;;;21.70;53.10;;;;;;5112146;27;19973;-59
2022/05/19 04:42:12;;;;;;;;;;;21.70;53.10;;;;;;5114157;27;19927;-57
2022/05/19 04:44:39;;;;;;;;;;;21.70;53.10;;;;;;5112080;27;19968;-59
2022/05/19 04:47:06;;;;;;;;;;;21.70;53.60;;;;;;5112342;27;19919;-58
2022/05/19 04:49:33;;;;;;;;;;;21.70;53.10;;;;;;5120897;27;20001;-59
2022/05/19 04:52:00;;;;;;;;;;;21.70;53.10;;;;;;5119300;27;20384;-59
2022/05/19 04:54:26;;;;;;;;;;;21.70;53.00;;;;;;5108221;28;20420;-58
2022/05/19 04:56:53;;;;;;;;;;;21.70;53.00;;;;;;5112686;27;19931;-57
2022/05/19 04:59:21;;;;;;;;;;;21.70;53.00;;;;;;5104533;27;20372;-59
2022/05/19 05:01:48;;;;;;;;;;;21.70;53.00;;;;;;5107034;27;19920;-58
2022/05/19 05:04:15;;;;;;;;;;;21.70;53.00;;;;;;5107497;27;19928;-59
2022/05/19 05:06:42;;;;;;;;;;;21.70;53.00;;;;;;5127293;27;19931;-59
2022/05/19 05:09:09;;;;;;;;;;;21.70;53.00;;;;;;5107643;27;20013;-58
2022/05/19 05:11:37;;;;;;;;;;;21.70;53.00;;;;;;5117733;27;19930;-58
2022/05/19 05:14:04;;;;;;;;;;;21.70;53.00;;;;;;5131196;27;19923;-57
2022/05/19 05:16:32;;;;;;;;;;;21.70;53.00;;;;;;5108528;27;19998;-59
2022/05/19 05:18:59;;;;;;;;;;;21.70;53.00;;;;;;5125866;27;19968;-58
2022/05/19 05:21:26;;;;;;;;;;;21.70;53.00;;;;;;5118416;27;19926;-57
2022/05/19 05:23:52;;;;;;;;;;;21.70;53.00;;;;;;5087388;27;19919;-59
2022/05/19 05:26:19;;;;;;;;;;;21.70;53.00;;;;;;5102080;27;19937;-59
2022/05/19 05:28:46;;;;;;;;;;;21.70;53.00;;;;;;5109451;27;19969;-59
2022/05/19 05:31:12;;;;;;;;;;;21.70;53.00;;;;;;5129293;27;19959;-58
2022/05/19 05:33:40;;;;;;;;;;;21.70;53.00;;;;;;5104804;27;19919;-58
2022/05/19 05:36:07;;;;;;;;;;;21.70;53.00;;;;;;5108788;27;20038;-55
2022/05/19 05:38:34;;;;;;;;;;;21.70;53.00;;;;;;5101662;27;20031;-59
2022/05/19 05:41:02;;;;;;;;;;;21.70;53.60;;;;;;5107542;27;19969;-59
2022/05/19 05:43:30;;;;;;;;;;;21.70;53.00;;;;;;5124816;27;20325;-57
2022/05/19 05:46:04;;;;;;;;;;;21.80;53.10;;;;;;5130577;27;19931;-58
2022/05/19 05:48:30;;;;;;;;;;;21.70;53.10;;;;;;5111961;27;19931;-55
2022/05/19 05:50:58;;;;;;;;;;;21.70;53.10;;;;;;5111296;27;19923;-60
2022/05/19 05:53:25;;;;;;;;;;;21.70;53.10;;;;;;5117664;27;20013;-60
2022/05/19 05:55:52;;;;;;;;;;;21.70;53.10;;;;;;5106452;27;20023;-58
2022/05/19 05:58:18;;;;;;;;;;;21.70;53.10;;;;;;5120887;27;19947;-58
2022/05/19 06:00:45;;;;;;;;;;;21.70;53.10;;;;;;5103848;27;19924;-60
2022/05/19 06:03:12;;;;;;;;;;;21.70;53.10;;;;;;5106252;27;20024;-59
2022/05/19 06:05:39;;;;;;;;;;;21.80;53.20;;;;;;5101827;27;20003;-58
2022/05/19 06:08:08;;;;;;;;;;;21.70;53.20;;;;;;5111648;27;20000;-57
2022/05/19 06:10:34;;;;;;;;;;;21.80;53.20;;;;;;5103017;27;20034;-58
2022/05/19 06:13:01;;;;;;;;;;;21.70;53.20;;;;;;5111442;27;19923;-56
2022/05/19 06:15:28;;;;;;;;;;;21.80;53.30;;;;;;5106495;27;19919;-58
2022/05/19 06:17:54;;;;;;;;;;;21.70;53.20;;;;;;5106952;27;20462;-58
2022/05/19 06:20:23;;;;;;;;;;;21.80;53.30;;;;;;5110146;27;20014;-57
2022/05/19 06:22:50;;;;;;;;;;;21.80;53.30;;;;;;5108655;27;20365;-60
2022/05/19 06:25:18;;;;;;;;;;;21.80;53.30;;;;;;5107127;27;20014;-57
2022/05/19 06:27:45;;;;;;;;;;;21.80;53.40;;;;;;5110581;27;20211;-58
2022/05/19 06:30:13;;;;;;;;;;;21.80;53.40;;;;;;5121719;27;19946;-58
2022/05/19 06:32:40;;;;;;;;;;;21.80;53.50;;;;;;5128299;27;20026;-59
2022/05/19 06:35:08;;;;;;;;;;;21.80;53.40;;;;;;5129819;27;19919;-58
2022/05/19 06:37:34;;;;;;;;;;;21.80;53.40;;;;;;5125958;27;20275;-58
2022/05/19 06:40:01;;;;;;;;;;;21.80;53.50;;;;;;5128509;27;19977;-59
2022/05/19 06:42:29;;;;;;;;;;;21.80;53.50;;;;;;5112373;28;19976;-58
2022/05/19 06:44:56;;;;;;;;;;;21.80;53.50;;;;;;5106528;27;20388;-57
2022/05/19 06:47:23;;;;;;;;;;;21.80;53.50;;;;;;5100912;27;19935;-58
2022/05/19 06:49:51;;;;;;;;;;;21.80;53.50;;;;;;5103766;28;19962;-60
2022/05/19 06:52:18;;;;;;;;;;;21.80;53.50;;;;;;5106588;28;19920;-57
2022/05/19 06:54:45;;;;;;;;;;;21.90;53.60;;;;;;5105861;27;20010;-58
2022/05/19 06:57:11;;;;;;;;;;;21.90;53.70;;;;;;5109361;27;20016;-57
2022/05/19 06:59:39;;;;;;;;;;;21.90;53.90;;;;;;5109008;28;19923;-58
2022/05/19 07:02:06;;;;;;;;;;;21.90;53.90;;;;;;5104319;27;19920;-59
2022/05/19 07:04:33;;;;;;;;;;;21.90;53.80;;;;;;5096037;27;19935;-58
2022/05/19 07:06:59;;;;;;;;;;;21.90;53.80;;;;;;5099131;27;20390;-57
2022/05/19 07:09:26;;;;;;;;;;;21.90;53.80;;;;;;5127928;27;19923;-59
2022/05/19 07:11:53;;;;;;;;;;;21.90;53.80;;;;;;5123811;27;19968;-58
2022/05/19 07:14:20;;;;;;;;;;;21.90;53.90;;;;;;5109108;28;20009;-58
2022/05/19 07:16:48;;;;;;;;;;;21.90;53.90;;;;;;5108508;27;19947;-60
2022/05/19 07:22:00;;;;;;;;;;;21.90;53.90;;;;;;5109577;27;19920;-57
2022/05/19 07:24:26;;;;;;;;;;;21.90;53.90;;;;;;5103278;27;19923;-60
2022/05/19 07:26:54;;;;;;;;;;;21.90;53.90;;;;;;5109395;27;19982;-58
2022/05/19 07:29:21;;;;;;;;;;;21.90;53.90;;;;;;5105769;28;20260;-59
2022/05/19 07:31:49;;;;;;;;;;;21.90;53.90;;;;;;5125068;27;19927;-59
2022/05/19 07:34:16;;;;;;;;;;;21.90;53.90;;;;;;5112979;27;19919;-58
2022/05/19 07:36:43;;;;;;;;;;;22.00;54.00;;;;;;5108445;27;19969;-59
2022/05/19 07:39:11;;;;;;;;;;;21.90;53.90;;;;;;5093921;27;20534;-59
2022/05/19 07:41:37;;;;;;;;;;;21.90;53.90;;;;;;5112766;27;19933;-57
2022/05/19 07:44:05;;;;;;;;;;;21.90;53.90;;;;;;5124943;27;19968;-58
2022/05/19 07:46:31;;;;;;;;;;;22.00;54.00;;;;;;5113764;27;19975;-57
2022/05/19 07:48:59;;;;;;;;;;;22.00;54.00;;;;;;5124062;27;20530;-57
2022/05/19 07:51:26;;;;;;;;;;;22.00;54.00;;;;;;5131001;27;19930;-58
2022/05/19 07:53:53;;;;;;;;;;;22.00;53.90;;;;;;5111801;27;20240;-57
2022/05/19 07:56:20;;;;;;;;;;;22.00;54.00;;;;;;5107117;27;19920;-58
2022/05/19 07:58:47;;;;;;;;;;;22.00;54.00;;;;;;5125656;27;19998;-58
2022/05/19 08:01:14;;;;;;;;;;;22.00;53.90;;;;;;5116668;27;19977;-60
2022/05/19 08:03:40;;;;;;;;;;;22.00;53.90;;;;;;5105836;27;20324;-59
2022/05/19 08:06:10;;;;;;;;;;;22.00;54.00;;;;;;5102208;27;19957;-57
2022/05/19 08:08:37;;;;;;;;;;;22.00;53.90;;;;;;5105519;27;19927;-57
2022/05/19 08:11:03;;;;;;;;;;;22.00;53.90;;;;;;5102628;27;20028;-59
2022/05/19 08:16:14;;;;;;;;;;;22.00;53.80;;;;;;5101594;27;19926;-56
2022/05/19 08:18:41;;;;;;;;;;;22.00;53.80;;;;;;5107430;27;20010;-56
2022/05/19 08:21:11;;;;;;;;;;;22.00;53.70;;;;;;5110550;27;20039;-58
2022/05/19 08:23:38;;;;;;;;;;;22.00;53.80;;;;;;5116870;27;19919;-56
2022/05/19 08:26:05;;;;;;;;;;;22.00;53.70;;;;;;5103694;27;20010;-57
2022/05/19 08:28:31;;;;;;;;;;;22.00;53.60;;;;;;5111003;27;20432;-59
2022/05/19 08:30:59;;;;;;;;;;;22.00;53.60;;;;;;5094503;27;19923;-59
2022/05/19 08:33:26;;;;;;;;;;;22.00;53.60;;;;;;5109773;27;20199;-57
2022/05/19 08:35:52;;;;;;;;;;;22.10;53.60;;;;;;5108012;27;19930;-57
2022/05/19 08:38:21;;;;;;;;;;;22.00;53.50;;;;;;5111176;27;20018;-59
2022/05/19 08:40:49;;;;;;;;;;;22.00;53.40;;;;;;5109067;27;19919;-59
2022/05/19 08:43:16;;;;;;;;;;;22.00;53.40;;;;;;5118829;27;19983;-59
2022/05/19 08:45:44;;;;;;;;;;;22.00;53.40;;;;;;5110936;27;19924;-56
2022/05/19 08:48:12;;;;;;;;;;;22.00;53.30;;;;;;5099311;27;20253;-55
2022/05/19 08:50:42;;;;;;;;;;;22.00;53.20;;;;;;5108958;27;19958;-57
2022/05/19 08:53:11;;;;;;;;;;;22.00;53.20;;;;;;5119175;27;20279;-56
2022/05/19 08:55:40;;;;;;;;;;;22.00;53.10;;;;;;5107169;28;19923;-59
2022/05/19 08:58:11;;;;;;;;;;;22.00;53.10;;;;;;5122729;27;19930;-60
2022/05/19 09:00:38;;;;;;;;;;;22.00;53.10;;;;;;5098406;27;19927;-59
2022/05/19 09:03:06;;;;;;;;;;;22.00;53.00;;;;;;5091491;27;20435;-60
2022/05/19 09:05:36;;;;;;;;;;;22.10;53.10;;;;;;5117802;27;19927;-59
2022/05/19 09:08:05;;;;;;;;;;;22.10;53.00;;;;;;5101301;27;19930;-59
2022/05/19 09:10:43;;;;;;;;;;;22.00;52.90;;;;;;5129709;27;20026;-59
2022/05/19 09:13:12;;;;;;;;;;;22.10;52.90;;;;;;5127079;27;20039;-59
2022/05/19 09:15:38;;;;;;;;;;;22.10;52.90;;;;;;5113764;27;20368;-59
2022/05/19 09:18:05;;;;;;;;;;;22.10;52.90;;;;;;5109230;27;19927;-58
2022/05/19 09:20:34;;;;;;;;;;;22.10;52.80;;;;;;5122416;27;19923;-58
2022/05/19 09:23:03;;;;;;;;;;;22.10;52.80;;;;;;5122048;27;19953;-59
2022/05/19 09:25:30;;;;;;;;;;;22.10;52.80;;;;;;5094232;28;20384;-58
2022/05/19 09:27:58;;;;;;;;;;;22.10;52.80;;;;;;5109498;28;19967;-58
2022/05/19 09:30:33;;;;;;;;;;;22.10;52.80;;;;;;5123805;27;20059;-59
2022/05/19 09:32:59;;;;;;;;;;;22.10;52.80;;;;;;5118212;27;19926;-59
2022/05/19 09:35:27;;;;;;;;;;;22.10;52.70;;;;;;5109314;27;19926;-58
2022/05/19 09:38:02;;;;;;;;;;;22.10;52.70;;;;;;5113711;27;20364;-59
2022/05/19 09:40:29;;;;;;;;;;;22.20;52.70;;;;;;5122682;27;19931;-59
2022/05/19 09:42:58;;;;;;;;;;;22.20;52.70;;;;;;5125783;27;20025;-60
2022/05/19 09:45:25;;;;;;;;;;;22.10;52.70;;;;;;5109978;27;19962;-59
2022/05/19 09:47:53;;;;;;;;;;;22.20;52.70;;;;;;5107499;27;19920;-60
2022/05/19 09:50:20;;;;;;;;;;;22.10;52.60;;;;;;5109114;27;20110;-57
2022/05/19 09:52:47;;;;;;;;;;;22.10;52.60;;;;;;5102234;27;19928;-59
2022/05/19 09:55:15;;;;;;;;;;;22.10;52.60;;;;;;5112825;27;19919;-59
2022/05/19 09:57:43;;;;;;;;;;;22.10;52.60;;;;;;5117120;27;19919;-59
2022/05/19 10:00:17;;;;;;;;;;;22.10;52.50;;;;;;5121994;27;19920;-58
2022/05/19 10:02:46;;;;;;;;;;;22.20;52.60;;;;;;5121637;27;19939;-59
2022/05/19 10:05:19;;;;;;;;;;;22.20;52.50;;;;;;5102302;27;19938;-58
2022/05/19 10:07:46;;;;;;;;;;;22.20;52.50;;;;;;5103077;28;20033;-59
2022/05/19 10:10:18;;;;;;;;;;;22.20;52.50;;;;;;5111957;27;19924;-60
2022/05/19 10:12:46;;;;;;;;;;;22.20;52.50;;;;;;5121533;27;19922;-58
2022/05/19 10:15:15;;;;;;;;;;;22.20;52.50;;;;;;5105111;27;19931;-59
2022/05/19 10:17:44;;;;;;;;;;;22.20;52.40;;;;;;5105930;27;20174;-57
2022/05/19 10:20:12;;;;;;;;;;;22.20;52.40;;;;;;5110032;27;19933;-58
2022/05/19 10:22:45;;;;;;;;;;;22.20;52.40;;;;;;5117008;27;19926;-58
2022/05/19 10:25:16;;;;;;;;;;;22.20;52.30;;;;;;5108429;27;19919;-59
2022/05/19 10:33:19;;;;;;;;;;;22.20;52.30;;;;;;5127814;27;19958;-60
2022/05/19 10:35:51;;;;;;;;;;;22.20;52.20;;;;;;5122026;27;19959;-59
2022/05/19 10:38:28;;;;;;;;;;;22.20;52.20;;;;;;5113999;27;20337;-58
2022/05/19 10:40:58;;;;;;;;;;;22.30;52.30;;;;;;5119804;27;19976;-60
2022/05/19 10:43:31;;;;;;;;;;;22.20;52.20;;;;;;5105863;27;19942;-57
2022/05/19 10:46:01;;;;;;;;;;;22.30;52.30;;;;;;5108818;27;20010;-60
2022/05/19 10:48:42;;;;;;;;;;;22.30;52.20;;;;;;5119209;27;20284;-60
2022/05/19 10:51:09;;;;;;;;;;;22.30;52.30;;;;;;5116358;27;19941;-58
2022/05/19 10:53:43;;;;;;;;;;;22.30;52.30;;;;;;5093145;27;20269;-57
2022/05/19 10:56:28;;;;;;;;;;;22.30;52.20;;;;;;5110747;27;19927;-59
2022/05/19 10:59:05;;;;;;;;;;;22.30;52.20;;;;;;5086517;27;19923;-58
2022/05/19 11:01:35;;;;;;;;;;;22.30;52.20;;;;;;5097585;27;20025;-58
2022/05/19 11:04:22;;;;;;;;;;;22.30;52.20;;;;;;5104571;27;20410;-59
2022/05/19 11:06:52;;;;;;;;;;;22.30;52.20;;;;;;5103241;27;19967;-59
2022/05/19 11:09:21;;;;;;;;;;;22.30;52.20;;;;;;5119098;27;19929;-59
2022/05/19 11:11:54;;;;;;;;;;;22.30;52.20;;;;;;5111973;27;19920;-58
2022/05/19 11:14:24;;;;;;;;;;;22.30;52.80;;;;;;5102508;27;20352;-56
2022/05/19 11:16:54;;;;;;;;;;;22.30;52.20;;;;;;5122188;27;19950;-58
2022/05/19 11:19:23;;;;;;;;;;;22.30;52.20;;;;;;5112721;27;19931;-57
2022/05/19 11:21:51;;;;;;;;;;;22.30;52.20;;;;;;5106739;27;20241;-58
2022/05/19 11:24:22;;;;;;;;;;;22.30;52.30;;;;;;5116255;27;20402;-58
2022/05/19 11:26:48;;;;;;;;;;;22.30;52.20;;;;;;5132600;27;20418;-59
2022/05/19 11:29:18;;;;;;;;;;;22.30;52.20;;;;;;5123024;27;20325;-59
2022/05/19 11:31:46;;;;;;;;;;;22.30;52.30;;;;;;5113492;27;20369;-59
2022/05/19 11:34:18;;;;;;;;;;;22.40;52.30;;;;;;5128531;27;20382;-60
2022/05/19 11:36:46;;;;;;;;;;;22.30;52.20;;;;;;5120528;27;20509;-56
2022/05/19 11:39:15;;;;;;;;;;;22.40;52.20;;;;;;5100947;27;20505;-57
2022/05/19 11:41:41;;;;;;;;;;;22.30;52.10;;;;;;5119740;27;19976;-59
2022/05/19 11:44:10;;;;;;;;;;;22.40;52.20;;;;;;5099740;27;19951;-58
2022/05/19 11:46:38;;;;;;;;;;;22.40;52.20;;;;;;5101151;27;20429;-58
2022/05/19 11:57:24;;;;;;;;;;;22.40;52.10;;;;;;5123392;27;20010;-59
2022/05/19 11:59:53;;;;;;;;;;;22.40;52.10;;;;;;5101085;27;20495;-59
2022/05/19 12:02:20;;;;;;;;;;;22.40;52.00;;;;;;5103952;27;19927;-57
2022/05/19 12:04:47;;;;;;;;;;;22.40;52.00;;;;;;5108383;27;19949;-60
2022/05/19 12:07:22;;;;;;;;;;;22.40;52.00;;;;;;5112825;27;19972;-59
2022/05/19 12:09:49;;;;;;;;;;;22.40;52.00;;;;;;5112802;27;19931;-60
2022/05/19 12:12:17;;;;;;;;;;;22.40;51.90;;;;;;5130241;27;19931;-59
2022/05/19 12:14:45;;;;;;;;;;;22.40;51.90;;;;;;5123031;27;20035;-59
2022/05/19 12:17:15;;;;;;;;;;;22.40;51.90;;;;;;5124436;27;19925;-58
2022/05/19 12:19:43;;;;;;;;;;;22.40;51.90;;;;;;5097597;27;20372;-59
2022/05/19 12:22:11;;;;;;;;;;;22.40;51.90;;;;;;5113365;27;19920;-58
2022/05/19 12:24:40;;;;;;;;;;;22.40;51.90;;;;;;5121631;27;19980;-59
2022/05/19 12:27:11;;;;;;;;;;;22.40;51.90;;;;;;5107034;27;20340;-59
2022/05/19 12:29:43;;;;;;;;;;;22.40;51.90;;;;;;5119560;27;19919;-56
2022/05/19 12:32:10;;;;;;;;;;;22.40;51.90;;;;;;5118073;27;19981;-60
2022/05/19 12:34:38;;;;;;;;;;;22.40;51.80;;;;;;5108401;27;19957;-58
2022/05/19 12:37:09;;;;;;;;;;;22.40;51.80;;;;;;5118149;27;19937;-59
2022/05/19 12:39:46;;;;;;;;;;;22.40;51.80;;;;;;5121982;27;19926;-59
2022/05/19 12:42:14;;;;;;;;;;;22.40;51.80;;;;;;5126930;27;20004;-61
2022/05/19 12:44:44;;;;;;;;;;;22.40;51.80;;;;;;5108880;27;19920;-61
2022/05/19 12:47:12;;;;;;;;;;;22.40;51.80;;;;;;5128069;27;20006;-60
2022/05/19 12:49:38;;;;;;;;;;;22.40;51.70;;;;;;5125127;27;19927;-59
2022/05/19 12:52:09;;;;;;;;;;;22.40;51.70;;;;;;5099707;27;20408;-59
2022/05/19 12:54:37;;;;;;;;;;;22.40;51.70;;;;;;5095839;27;19941;-59
2022/05/19 12:57:24;;;;;;;;;;;22.40;51.70;;;;;;5099462;27;19923;-58
2022/05/19 13:00:06;;;;;;;;;;;22.40;51.60;;;;;;5098416;27;19938;-60
2022/05/19 13:02:34;;;;;;;;;;;22.40;51.60;;;;;;5106233;27;19923;-59
2022/05/19 13:05:04;;;;;;;;;;;22.40;51.60;;;;;;5121156;27;20419;-59
2022/05/19 13:07:33;;;;;;;;;;;22.40;51.60;;;;;;5096741;27;19924;-55
2022/05/19 13:10:07;;;;;;;;;;;22.40;51.60;;;;;;5112185;27;19951;-55
2022/05/19 13:12:38;;;;;;;;;;;22.40;51.60;;;;;;5100626;27;19955;-54
2022/05/19 13:15:07;;;;;;;;;;;22.40;51.50;;;;;;5113037;27;20018;-57
2022/05/19 13:17:34;;;;;;;;;;;22.40;51.50;;;;;;5111042;27;19930;-59
2022/05/19 13:20:01;;;;;;;;;;;22.50;51.60;;;;;;5119112;27;19930;-58
2022/05/19 13:22:29;;;;;;;;;;;22.40;51.40;;;;;;5109427;27;19948;-59
2022/05/19 13:24:56;;;;;;;;;;;22.40;51.40;;;;;;5098363;27;19941;-58
2022/05/19 13:30:26;;;;;;;;;;;22.40;51.40;;;;;;5104336;27;20300;-59
2022/05/19 13:32:57;;;;;;;;;;;22.40;51.30;;;;;;5100457;27;19967;-55
2022/05/19 13:35:24;;;;;;;;;;;22.40;51.30;;;;;;5103245;27;20063;-59
2022/05/19 13:37:51;;;;;;;;;;;22.40;51.30;;;;;;5128066;27;19919;-58
2022/05/19 13:40:19;;;;;;;;;;;22.50;51.30;;;;;;5123251;27;19938;-57
2022/05/19 13:42:45;;;;;;;;;;;22.40;51.20;;;;;;5113366;27;20027;-59
2022/05/19 13:45:18;;;;;;;;;;;22.40;51.20;;;;;;5115247;27;19964;-56
2022/05/19 13:47:46;;;;;;;;;;;22.40;51.20;;;;;;5122414;27;20374;-55
2022/05/19 13:50:16;;;;;;;;;;;22.50;51.30;;;;;;5097926;27;20335;-57
2022/05/19 13:52:44;;;;;;;;;;;22.50;51.20;;;;;;5096445;27;19931;-58
2022/05/19 13:55:21;;;;;;;;;;;22.50;51.20;;;;;;5107274;27;19928;-59
2022/05/19 13:57:49;;;;;;;;;;;22.50;51.20;;;;;;5092933;27;19942;-59
2022/05/19 14:00:16;;;;;;;;;;;22.50;51.10;;;;;;5105191;27;19927;-57
2022/05/19 14:02:44;;;;;;;;;;;22.50;51.10;;;;;;5095399;27;19927;-55
2022/05/19 14:05:15;;;;;;;;;;;22.50;51.00;;;;;;5101562;28;19923;-58
2022/05/19 14:07:42;;;;;;;;;;;22.50;51.00;;;;;;5107630;27;19924;-59
2022/05/19 14:10:10;;;;;;;;;;;22.50;51.00;;;;;;5107055;27;20325;-55
2022/05/19 14:12:41;;;;;;;;;;;22.50;50.90;;;;;;5108405;27;19942;-54
2022/05/19 14:15:08;;;;;;;;;;;22.50;50.90;;;;;;5090637;27;19927;-57
2022/05/19 14:17:36;;;;;;;;;;;22.50;50.90;;;;;;5094687;27;19959;-59
2022/05/19 14:20:04;;;;;;;;;;;22.50;51.00;;;;;;5112718;27;19923;-60
2022/05/19 14:22:32;;;;;;;;;;;22.50;50.90;;;;;;5123271;27;20257;-57
2022/05/19 14:24:59;;;;;;;;;;;22.50;50.90;;;;;;5126545;27;19923;-60
2022/05/19 14:27:26;;;;;;;;;;;22.50;50.90;;;;;;5114199;27;19920;-58
2022/05/19 14:29:53;;;;;;;;;;;22.50;50.90;;;;;;5108702;27;19995;-58
2022/05/19 14:32:24;;;;;;;;;;;22.50;50.90;;;;;;5112311;27;20318;-60
2022/05/19 14:34:51;;;;;;;;;;;22.50;50.90;;;;;;5115333;27;20394;-58
2022/05/19 14:37:19;;;;;;;;;;;22.50;50.90;;;;;;5101231;27;19924;-58
2022/05/19 14:39:47;;;;;;;;;;;22.50;50.90;;;;;;5114184;27;19932;-58
2022/05/19 14:44:58;;;;;;;;;;;22.50;50.90;;;;;;5120656;28;19930;-59
2022/05/19 14:47:26;;;;;;;;;;;22.50;50.90;;;;;;5102329;28;19920;-57